Aviation Digital Data Service (ADDS)

Output produced by METARs form (1240 UTC 24 April 2014)
found at http://aviationweather.gov/adds/metars/
 
KMPV 241126Z 2412/2512 32014G24KT P6SM OVC040 
     FM241400 32020G30KT P6SM BKN045 
     FM242100 33015G25KT P6SM SCT045 
     FM250000 33007KT P6SM SKC